sensor_id;sensor_type;location;lat;lon;timestamp;P1;durP1;ratioP1;P2;durP2;ratioP2
40827;SDS011;26549;50.918;5.338;2023-07-13T00:02:23;4.57;;;1.05;;
40827;SDS011;26549;50.918;5.338;2023-07-13T00:04:50;3.33;;;1.30;;
40827;SDS011;26549;50.918;5.338;2023-07-13T00:07:17;4.82;;;1.85;;
40827;SDS011;26549;50.918;5.338;2023-07-13T00:09:45;2.58;;;0.93;;
40827;SDS011;26549;50.918;5.338;2023-07-13T00:12:22;4.25;;;0.90;;
40827;SDS011;26549;50.918;5.338;2023-07-13T00:14:55;1.27;;;0.88;;
40827;SDS011;26549;50.918;5.338;2023-07-13T00:17:22;4.43;;;1.15;;
40827;SDS011;26549;50.918;5.338;2023-07-13T00:19:49;5.07;;;1.73;;
40827;SDS011;26549;50.918;5.338;2023-07-13T00:22:16;2.42;;;1.00;;
40827;SDS011;26549;50.918;5.338;2023-07-13T00:24:43;3.92;;;1.13;;
40827;SDS011;26549;50.918;5.338;2023-07-13T00:27:09;3.13;;;1.02;;
40827;SDS011;26549;50.918;5.338;2023-07-13T00:29:35;2.88;;;0.90;;
40827;SDS011;26549;50.918;5.338;2023-07-13T00:32:05;4.10;;;1.02;;
40827;SDS011;26549;50.918;5.338;2023-07-13T00:34:32;4.43;;;0.95;;
40827;SDS011;26549;50.918;5.338;2023-07-13T00:36:59;2.40;;;1.02;;
40827;SDS011;26549;50.918;5.338;2023-07-13T00:39:25;3.22;;;0.85;;
40827;SDS011;26549;50.918;5.338;2023-07-13T00:41:50;3.38;;;1.40;;
40827;SDS011;26549;50.918;5.338;2023-07-13T00:44:17;6.40;;;1.50;;
40827;SDS011;26549;50.918;5.338;2023-07-13T00:46:44;3.35;;;1.77;;
40827;SDS011;26549;50.918;5.338;2023-07-13T00:49:16;6.57;;;0.93;;
40827;SDS011;26549;50.918;5.338;2023-07-13T00:51:49;4.20;;;1.20;;
40827;SDS011;26549;50.918;5.338;2023-07-13T00:54:29;4.63;;;1.30;;
40827;SDS011;26549;50.918;5.338;2023-07-13T00:56:59;3.22;;;1.23;;
40827;SDS011;26549;50.918;5.338;2023-07-13T00:59:27;5.25;;;1.20;;
40827;SDS011;26549;50.918;5.338;2023-07-13T01:01:53;2.78;;;0.82;;
40827;SDS011;26549;50.918;5.338;2023-07-13T01:04:20;2.60;;;1.08;;
40827;SDS011;26549;50.918;5.338;2023-07-13T01:06:45;5.15;;;1.45;;
40827;SDS011;26549;50.918;5.338;2023-07-13T01:09:12;3.45;;;1.13;;
40827;SDS011;26549;50.918;5.338;2023-07-13T01:11:39;3.50;;;0.90;;
40827;SDS011;26549;50.918;5.338;2023-07-13T01:14:06;6.20;;;1.23;;
40827;SDS011;26549;50.918;5.338;2023-07-13T01:16:32;4.45;;;1.15;;
40827;SDS011;26549;50.918;5.338;2023-07-13T01:19:00;4.20;;;1.25;;
40827;SDS011;26549;50.918;5.338;2023-07-13T01:21:29;3.53;;;1.00;;
40827;SDS011;26549;50.918;5.338;2023-07-13T01:23:57;6.13;;;1.20;;
40827;SDS011;26549;50.918;5.338;2023-07-13T01:26:23;5.00;;;1.00;;
40827;SDS011;26549;50.918;5.338;2023-07-13T01:28:49;3.17;;;1.10;;
40827;SDS011;26549;50.918;5.338;2023-07-13T01:31:14;6.72;;;1.52;;
40827;SDS011;26549;50.918;5.338;2023-07-13T01:33:40;6.30;;;1.48;;
40827;SDS011;26549;50.918;5.338;2023-07-13T01:36:08;7.75;;;2.08;;
40827;SDS011;26549;50.918;5.338;2023-07-13T01:38:35;3.05;;;1.00;;
40827;SDS011;26549;50.918;5.338;2023-07-13T01:41:02;5.93;;;1.60;;
40827;SDS011;26549;50.918;5.338;2023-07-13T01:43:29;3.63;;;1.35;;
40827;SDS011;26549;50.918;5.338;2023-07-13T01:45:56;9.05;;;1.30;;
40827;SDS011;26549;50.918;5.338;2023-07-13T01:48:21;5.32;;;1.25;;
40827;SDS011;26549;50.918;5.338;2023-07-13T01:50:47;5.10;;;1.20;;
40827;SDS011;26549;50.918;5.338;2023-07-13T01:53:13;7.75;;;1.65;;
40827;SDS011;26549;50.918;5.338;2023-07-13T01:55:40;5.60;;;1.25;;
40827;SDS011;26549;50.918;5.338;2023-07-13T01:58:06;5.13;;;1.13;;
40827;SDS011;26549;50.918;5.338;2023-07-13T02:00:32;5.43;;;1.98;;
40827;SDS011;26549;50.918;5.338;2023-07-13T02:02:58;6.50;;;1.50;;
40827;SDS011;26549;50.918;5.338;2023-07-13T02:05:24;3.08;;;1.30;;
40827;SDS011;26549;50.918;5.338;2023-07-13T02:07:50;3.60;;;0.98;;
40827;SDS011;26549;50.918;5.338;2023-07-13T02:10:15;1.58;;;0.90;;
40827;SDS011;26549;50.918;5.338;2023-07-13T02:12:41;4.10;;;1.27;;
40827;SDS011;26549;50.918;5.338;2023-07-13T02:15:07;8.05;;;1.52;;
40827;SDS011;26549;50.918;5.338;2023-07-13T02:17:34;4.97;;;1.27;;
40827;SDS011;26549;50.918;5.338;2023-07-13T02:20:01;2.65;;;1.10;;
40827;SDS011;26549;50.918;5.338;2023-07-13T02:22:28;5.15;;;1.90;;
40827;SDS011;26549;50.918;5.338;2023-07-13T02:24:54;2.90;;;1.27;;
40827;SDS011;26549;50.918;5.338;2023-07-13T02:27:20;2.55;;;1.63;;
40827;SDS011;26549;50.918;5.338;2023-07-13T02:29:46;3.90;;;1.30;;
40827;SDS011;26549;50.918;5.338;2023-07-13T02:32:12;5.10;;;1.38;;
40827;SDS011;26549;50.918;5.338;2023-07-13T02:34:38;7.65;;;2.47;;
40827;SDS011;26549;50.918;5.338;2023-07-13T02:37:05;5.15;;;1.13;;
40827;SDS011;26549;50.918;5.338;2023-07-13T02:39:31;7.03;;;1.50;;
40827;SDS011;26549;50.918;5.338;2023-07-13T02:41:58;6.43;;;1.20;;
40827;SDS011;26549;50.918;5.338;2023-07-13T02:44:25;3.70;;;1.15;;
40827;SDS011;26549;50.918;5.338;2023-07-13T02:46:51;7.05;;;1.23;;
40827;SDS011;26549;50.918;5.338;2023-07-13T02:49:16;6.05;;;1.05;;
40827;SDS011;26549;50.918;5.338;2023-07-13T02:51:42;6.25;;;1.60;;
40827;SDS011;26549;50.918;5.338;2023-07-13T02:54:08;4.32;;;1.30;;
40827;SDS011;26549;50.918;5.338;2023-07-13T02:56:35;6.20;;;1.48;;
40827;SDS011;26549;50.918;5.338;2023-07-13T02:59:04;7.25;;;1.50;;
40827;SDS011;26549;50.918;5.338;2023-07-13T03:01:30;6.82;;;1.40;;
40827;SDS011;26549;50.918;5.338;2023-07-13T03:04:01;5.55;;;1.38;;
40827;SDS011;26549;50.918;5.338;2023-07-13T03:06:28;3.58;;;1.15;;
40827;SDS011;26549;50.918;5.338;2023-07-13T03:08:55;6.03;;;1.60;;
40827;SDS011;26549;50.918;5.338;2023-07-13T03:11:21;9.10;;;1.80;;
40827;SDS011;26549;50.918;5.338;2023-07-13T03:13:47;7.70;;;1.92;;
40827;SDS011;26549;50.918;5.338;2023-07-13T03:16:13;6.32;;;2.80;;
40827;SDS011;26549;50.918;5.338;2023-07-13T03:18:43;9.85;;;2.45;;
40827;SDS011;26549;50.918;5.338;2023-07-13T03:21:09;6.50;;;1.60;;
40827;SDS011;26549;50.918;5.338;2023-07-13T03:23:35;4.95;;;1.95;;
40827;SDS011;26549;50.918;5.338;2023-07-13T03:26:04;5.78;;;1.60;;
40827;SDS011;26549;50.918;5.338;2023-07-13T03:28:33;4.03;;;1.42;;
40827;SDS011;26549;50.918;5.338;2023-07-13T03:31:07;4.25;;;1.52;;
40827;SDS011;26549;50.918;5.338;2023-07-13T03:33:34;8.05;;;2.00;;
40827;SDS011;26549;50.918;5.338;2023-07-13T03:36:01;8.25;;;2.67;;
40827;SDS011;26549;50.918;5.338;2023-07-13T03:38:28;3.53;;;1.58;;
40827;SDS011;26549;50.918;5.338;2023-07-13T03:40:55;5.35;;;1.73;;
40827;SDS011;26549;50.918;5.338;2023-07-13T03:43:20;7.88;;;2.13;;
40827;SDS011;26549;50.918;5.338;2023-07-13T03:45:47;6.63;;;1.42;;
40827;SDS011;26549;50.918;5.338;2023-07-13T03:48:13;6.25;;;2.20;;
40827;SDS011;26549;50.918;5.338;2023-07-13T03:50:39;6.70;;;1.80;;
40827;SDS011;26549;50.918;5.338;2023-07-13T03:53:05;4.97;;;1.20;;
40827;SDS011;26549;50.918;5.338;2023-07-13T03:55:32;9.98;;;1.92;;
40827;SDS011;26549;50.918;5.338;2023-07-13T03:58:44;5.43;;;1.48;;
40827;SDS011;26549;50.918;5.338;2023-07-13T04:00:52;16.85;;;2.28;;
40827;SDS011;26549;50.918;5.338;2023-07-13T04:03:19;6.90;;;1.83;;
40827;SDS011;26549;50.918;5.338;2023-07-13T04:05:44;5.90;;;1.90;;
40827;SDS011;26549;50.918;5.338;2023-07-13T04:08:11;5.22;;;1.85;;
40827;SDS011;26549;50.918;5.338;2023-07-13T04:10:37;9.50;;;1.55;;
40827;SDS011;26549;50.918;5.338;2023-07-13T04:13:03;10.32;;;2.22;;
40827;SDS011;26549;50.918;5.338;2023-07-13T04:15:30;9.70;;;2.30;;
40827;SDS011;26549;50.918;5.338;2023-07-13T04:17:58;7.03;;;1.90;;
40827;SDS011;26549;50.918;5.338;2023-07-13T04:20:28;6.03;;;2.40;;
40827;SDS011;26549;50.918;5.338;2023-07-13T04:22:54;7.63;;;2.05;;
40827;SDS011;26549;50.918;5.338;2023-07-13T04:25:20;8.80;;;1.92;;
40827;SDS011;26549;50.918;5.338;2023-07-13T04:27:46;7.88;;;3.00;;
40827;SDS011;26549;50.918;5.338;2023-07-13T04:30:12;6.35;;;1.95;;
40827;SDS011;26549;50.918;5.338;2023-07-13T04:32:40;6.47;;;1.85;;
40827;SDS011;26549;50.918;5.338;2023-07-13T04:35:06;10.73;;;1.70;;
40827;SDS011;26549;50.918;5.338;2023-07-13T04:37:32;4.80;;;1.73;;
40827;SDS011;26549;50.918;5.338;2023-07-13T04:39:57;6.15;;;1.88;;
40827;SDS011;26549;50.918;5.338;2023-07-13T04:42:23;10.93;;;2.03;;
40827;SDS011;26549;50.918;5.338;2023-07-13T04:44:49;8.57;;;2.00;;
40827;SDS011;26549;50.918;5.338;2023-07-13T04:47:16;11.60;;;2.20;;
40827;SDS011;26549;50.918;5.338;2023-07-13T04:49:42;5.60;;;1.90;;
40827;SDS011;26549;50.918;5.338;2023-07-13T04:52:08;6.55;;;2.45;;
40827;SDS011;26549;50.918;5.338;2023-07-13T04:54:34;6.28;;;1.73;;
40827;SDS011;26549;50.918;5.338;2023-07-13T04:57:00;13.23;;;2.75;;
40827;SDS011;26549;50.918;5.338;2023-07-13T04:59:26;7.80;;;1.85;;
40827;SDS011;26549;50.918;5.338;2023-07-13T05:01:52;9.30;;;2.75;;
40827;SDS011;26549;50.918;5.338;2023-07-13T05:04:18;7.28;;;1.50;;
40827;SDS011;26549;50.918;5.338;2023-07-13T05:06:45;13.73;;;3.88;;
40827;SDS011;26549;50.918;5.338;2023-07-13T05:09:10;4.85;;;1.42;;
40827;SDS011;26549;50.918;5.338;2023-07-13T05:11:38;6.40;;;1.80;;
40827;SDS011;26549;50.918;5.338;2023-07-13T05:14:04;5.07;;;2.25;;
40827;SDS011;26549;50.918;5.338;2023-07-13T05:16:30;8.23;;;1.77;;
40827;SDS011;26549;50.918;5.338;2023-07-13T05:18:57;7.68;;;1.98;;
40827;SDS011;26549;50.918;5.338;2023-07-13T05:21:23;8.23;;;2.28;;
40827;SDS011;26549;50.918;5.338;2023-07-13T05:23:50;8.48;;;1.90;;
40827;SDS011;26549;50.918;5.338;2023-07-13T05:26:16;9.02;;;2.78;;
40827;SDS011;26549;50.918;5.338;2023-07-13T05:28:42;9.68;;;2.28;;
40827;SDS011;26549;50.918;5.338;2023-07-13T05:31:08;8.85;;;2.67;;
40827;SDS011;26549;50.918;5.338;2023-07-13T05:33:35;5.25;;;2.10;;
40827;SDS011;26549;50.918;5.338;2023-07-13T05:36:01;7.90;;;1.50;;
40827;SDS011;26549;50.918;5.338;2023-07-13T05:38:27;8.23;;;2.35;;
40827;SDS011;26549;50.918;5.338;2023-07-13T05:40:53;9.10;;;1.77;;
40827;SDS011;26549;50.918;5.338;2023-07-13T05:43:22;9.73;;;2.40;;
40827;SDS011;26549;50.918;5.338;2023-07-13T05:45:48;4.57;;;1.85;;
40827;SDS011;26549;50.918;5.338;2023-07-13T05:48:15;10.13;;;2.92;;
40827;SDS011;26549;50.918;5.338;2023-07-13T05:50:40;6.72;;;3.20;;
40827;SDS011;26549;50.918;5.338;2023-07-13T05:53:06;13.30;;;3.15;;
40827;SDS011;26549;50.918;5.338;2023-07-13T05:55:32;4.63;;;1.85;;
40827;SDS011;26549;50.918;5.338;2023-07-13T05:57:59;7.55;;;1.70;;
40827;SDS011;26549;50.918;5.338;2023-07-13T06:00:25;7.22;;;2.00;;
40827;SDS011;26549;50.918;5.338;2023-07-13T06:02:51;9.73;;;1.92;;
40827;SDS011;26549;50.918;5.338;2023-07-13T06:05:17;7.97;;;1.90;;
40827;SDS011;26549;50.918;5.338;2023-07-13T06:07:43;9.10;;;3.03;;
40827;SDS011;26549;50.918;5.338;2023-07-13T06:10:09;4.22;;;2.28;;
40827;SDS011;26549;50.918;5.338;2023-07-13T06:12:35;8.38;;;2.42;;
40827;SDS011;26549;50.918;5.338;2023-07-13T06:15:01;9.90;;;1.70;;
40827;SDS011;26549;50.918;5.338;2023-07-13T06:17:27;10.05;;;2.28;;
40827;SDS011;26549;50.918;5.338;2023-07-13T06:19:54;7.13;;;1.90;;
40827;SDS011;26549;50.918;5.338;2023-07-13T06:22:20;9.90;;;3.58;;
40827;SDS011;26549;50.918;5.338;2023-07-13T06:24:46;10.40;;;3.17;;
40827;SDS011;26549;50.918;5.338;2023-07-13T06:27:12;7.47;;;1.90;;
40827;SDS011;26549;50.918;5.338;2023-07-13T06:29:37;7.05;;;2.20;;
40827;SDS011;26549;50.918;5.338;2023-07-13T06:32:04;14.00;;;3.40;;
40827;SDS011;26549;50.918;5.338;2023-07-13T06:34:30;9.93;;;3.92;;
40827;SDS011;26549;50.918;5.338;2023-07-13T06:36:56;10.38;;;2.13;;
40827;SDS011;26549;50.918;5.338;2023-07-13T06:39:22;10.93;;;3.90;;
40827;SDS011;26549;50.918;5.338;2023-07-13T06:41:48;7.53;;;2.35;;
40827;SDS011;26549;50.918;5.338;2023-07-13T06:44:13;11.10;;;2.08;;
40827;SDS011;26549;50.918;5.338;2023-07-13T06:46:39;7.28;;;2.65;;
40827;SDS011;26549;50.918;5.338;2023-07-13T06:49:05;6.60;;;2.53;;
40827;SDS011;26549;50.918;5.338;2023-07-13T06:51:32;9.15;;;2.83;;
40827;SDS011;26549;50.918;5.338;2023-07-13T06:53:58;12.48;;;2.45;;
40827;SDS011;26549;50.918;5.338;2023-07-13T06:56:24;10.35;;;1.85;;
40827;SDS011;26549;50.918;5.338;2023-07-13T06:58:50;8.25;;;2.60;;
40827;SDS011;26549;50.918;5.338;2023-07-13T07:01:15;8.45;;;2.55;;
40827;SDS011;26549;50.918;5.338;2023-07-13T07:03:41;9.82;;;2.65;;
40827;SDS011;26549;50.918;5.338;2023-07-13T07:06:16;5.95;;;2.20;;
40827;SDS011;26549;50.918;5.338;2023-07-13T07:08:44;5.45;;;2.28;;
40827;SDS011;26549;50.918;5.338;2023-07-13T07:11:16;9.75;;;2.88;;
40827;SDS011;26549;50.918;5.338;2023-07-13T07:13:44;11.23;;;2.42;;
40827;SDS011;26549;50.918;5.338;2023-07-13T07:16:09;9.75;;;2.60;;
40827;SDS011;26549;50.918;5.338;2023-07-13T07:18:35;7.03;;;2.58;;
40827;SDS011;26549;50.918;5.338;2023-07-13T07:21:01;8.45;;;2.20;;
40827;SDS011;26549;50.918;5.338;2023-07-13T07:23:27;6.47;;;3.10;;
40827;SDS011;26549;50.918;5.338;2023-07-13T07:25:53;9.52;;;1.70;;
40827;SDS011;26549;50.918;5.338;2023-07-13T07:28:19;5.88;;;2.53;;
40827;SDS011;26549;50.918;5.338;2023-07-13T07:30:45;6.07;;;2.80;;
40827;SDS011;26549;50.918;5.338;2023-07-13T07:33:11;8.10;;;2.15;;
40827;SDS011;26549;50.918;5.338;2023-07-13T07:35:37;10.98;;;2.63;;
40827;SDS011;26549;50.918;5.338;2023-07-13T07:38:03;6.68;;;2.53;;
40827;SDS011;26549;50.918;5.338;2023-07-13T07:40:29;9.55;;;2.13;;
40827;SDS011;26549;50.918;5.338;2023-07-13T07:42:56;11.00;;;3.05;;
40827;SDS011;26549;50.918;5.338;2023-07-13T07:45:22;6.18;;;2.03;;
40827;SDS011;26549;50.918;5.338;2023-07-13T07:47:49;10.50;;;4.53;;
40827;SDS011;26549;50.918;5.338;2023-07-13T07:50:15;7.25;;;2.92;;
40827;SDS011;26549;50.918;5.338;2023-07-13T07:52:41;7.53;;;2.40;;
40827;SDS011;26549;50.918;5.338;2023-07-13T07:55:09;9.38;;;2.00;;
40827;SDS011;26549;50.918;5.338;2023-07-13T07:57:35;5.63;;;2.33;;
40827;SDS011;26549;50.918;5.338;2023-07-13T08:00:01;6.68;;;2.58;;
40827;SDS011;26549;50.918;5.338;2023-07-13T08:02:27;8.50;;;2.20;;
40827;SDS011;26549;50.918;5.338;2023-07-13T08:04:53;10.07;;;2.10;;
40827;SDS011;26549;50.918;5.338;2023-07-13T08:07:18;4.70;;;2.03;;
40827;SDS011;26549;50.918;5.338;2023-07-13T08:09:44;7.88;;;2.88;;
40827;SDS011;26549;50.918;5.338;2023-07-13T08:12:11;7.07;;;2.15;;
40827;SDS011;26549;50.918;5.338;2023-07-13T08:14:37;6.95;;;2.45;;
40827;SDS011;26549;50.918;5.338;2023-07-13T08:17:03;8.18;;;2.97;;
40827;SDS011;26549;50.918;5.338;2023-07-13T08:19:30;8.23;;;2.20;;
40827;SDS011;26549;50.918;5.338;2023-07-13T08:21:56;9.57;;;1.73;;
40827;SDS011;26549;50.918;5.338;2023-07-13T08:24:23;8.40;;;2.17;;
40827;SDS011;26549;50.918;5.338;2023-07-13T08:26:50;6.57;;;1.80;;
40827;SDS011;26549;50.918;5.338;2023-07-13T08:29:16;7.57;;;1.77;;
40827;SDS011;26549;50.918;5.338;2023-07-13T08:31:42;7.82;;;3.25;;
40827;SDS011;26549;50.918;5.338;2023-07-13T08:34:07;5.40;;;1.85;;
40827;SDS011;26549;50.918;5.338;2023-07-13T08:36:33;7.72;;;2.42;;
40827;SDS011;26549;50.918;5.338;2023-07-13T08:38:59;7.32;;;1.95;;
40827;SDS011;26549;50.918;5.338;2023-07-13T08:41:25;7.18;;;1.90;;
40827;SDS011;26549;50.918;5.338;2023-07-13T08:43:51;6.72;;;1.50;;
40827;SDS011;26549;50.918;5.338;2023-07-13T08:46:27;9.73;;;2.25;;
40827;SDS011;26549;50.918;5.338;2023-07-13T08:49:02;9.15;;;1.98;;
40827;SDS011;26549;50.918;5.338;2023-07-13T08:51:44;4.72;;;1.40;;
40827;SDS011;26549;50.918;5.338;2023-07-13T08:54:20;5.82;;;1.80;;
40827;SDS011;26549;50.918;5.338;2023-07-13T08:56:52;8.10;;;1.90;;
40827;SDS011;26549;50.918;5.338;2023-07-13T08:59:26;6.35;;;1.25;;
40827;SDS011;26549;50.918;5.338;2023-07-13T09:02:14;6.63;;;1.55;;
40827;SDS011;26549;50.918;5.338;2023-07-13T09:04:53;6.07;;;1.40;;
40827;SDS011;26549;50.918;5.338;2023-07-13T09:15:28;5.32;;;2.08;;
40827;SDS011;26549;50.918;5.338;2023-07-13T09:18:01;5.18;;;1.70;;
40827;SDS011;26549;50.918;5.338;2023-07-13T09:20:35;5.32;;;1.70;;
40827;SDS011;26549;50.918;5.338;2023-07-13T09:23:10;5.22;;;2.33;;
40827;SDS011;26549;50.918;5.338;2023-07-13T09:25:40;8.48;;;1.70;;
40827;SDS011;26549;50.918;5.338;2023-07-13T09:33:18;3.60;;;1.52;;
40827;SDS011;26549;50.918;5.338;2023-07-13T09:35:45;4.43;;;1.25;;
40827;SDS011;26549;50.918;5.338;2023-07-13T09:38:15;7.70;;;1.55;;
40827;SDS011;26549;50.918;5.338;2023-07-13T09:43:34;5.72;;;1.25;;
40827;SDS011;26549;50.918;5.338;2023-07-13T09:46:00;4.75;;;1.40;;
40827;SDS011;26549;50.918;5.338;2023-07-13T09:48:32;8.48;;;2.20;;
40827;SDS011;26549;50.918;5.338;2023-07-13T09:51:14;8.45;;;1.83;;
40827;SDS011;26549;50.918;5.338;2023-07-13T09:53:41;4.28;;;0.90;;
40827;SDS011;26549;50.918;5.338;2023-07-13T09:56:19;4.85;;;1.60;;
40827;SDS011;26549;50.918;5.338;2023-07-13T09:58:51;6.53;;;1.25;;
40827;SDS011;26549;50.918;5.338;2023-07-13T10:01:30;6.65;;;2.55;;
40827;SDS011;26549;50.918;5.338;2023-07-13T10:04:01;9.95;;;2.53;;
40827;SDS011;26549;50.918;5.338;2023-07-13T10:06:34;5.18;;;1.15;;
40827;SDS011;26549;50.918;5.338;2023-07-13T10:09:00;6.00;;;1.17;;
40827;SDS011;26549;50.918;5.338;2023-07-13T10:11:27;3.03;;;1.35;;
40827;SDS011;26549;50.918;5.338;2023-07-13T10:13:58;2.88;;;1.20;;
40827;SDS011;26549;50.918;5.338;2023-07-13T10:16:28;6.03;;;1.20;;
40827;SDS011;26549;50.918;5.338;2023-07-13T10:18:58;6.57;;;1.65;;
40827;SDS011;26549;50.918;5.338;2023-07-13T10:21:28;4.13;;;1.10;;
40827;SDS011;26549;50.918;5.338;2023-07-13T10:24:20;7.15;;;1.42;;
40827;SDS011;26549;50.918;5.338;2023-07-13T10:26:52;5.07;;;1.10;;
40827;SDS011;26549;50.918;5.338;2023-07-13T10:29:36;7.65;;;1.45;;
40827;SDS011;26549;50.918;5.338;2023-07-13T10:32:12;6.35;;;1.00;;
40827;SDS011;26549;50.918;5.338;2023-07-13T10:34:39;10.15;;;1.88;;
40827;SDS011;26549;50.918;5.338;2023-07-13T10:37:15;2.67;;;1.42;;
40827;SDS011;26549;50.918;5.338;2023-07-13T10:39:45;4.78;;;1.42;;
40827;SDS011;26549;50.918;5.338;2023-07-13T10:42:13;4.30;;;1.63;;
40827;SDS011;26549;50.918;5.338;2023-07-13T10:44:43;4.40;;;1.33;;
40827;SDS011;26549;50.918;5.338;2023-07-13T10:47:13;2.45;;;0.95;;
40827;SDS011;26549;50.918;5.338;2023-07-13T10:49:41;3.90;;;0.95;;
40827;SDS011;26549;50.918;5.338;2023-07-13T10:52:35;4.07;;;1.50;;
40827;SDS011;26549;50.918;5.338;2023-07-13T10:55:13;5.78;;;1.10;;
40827;SDS011;26549;50.918;5.338;2023-07-13T10:58:40;3.78;;;1.23;;
40827;SDS011;26549;50.918;5.338;2023-07-13T11:03:17;6.25;;;1.30;;
40827;SDS011;26549;50.918;5.338;2023-07-13T11:05:50;4.57;;;1.83;;
40827;SDS011;26549;50.918;5.338;2023-07-13T11:08:32;4.88;;;0.95;;
40827;SDS011;26549;50.918;5.338;2023-07-13T11:11:03;7.38;;;1.42;;
40827;SDS011;26549;50.918;5.338;2023-07-13T11:19:08;7.20;;;1.10;;
40827;SDS011;26549;50.918;5.338;2023-07-13T11:35:49;4.82;;;0.95;;
40827;SDS011;26549;50.918;5.338;2023-07-13T11:38:17;4.88;;;1.10;;
40827;SDS011;26549;50.918;5.338;2023-07-13T11:40:46;3.60;;;1.25;;
40827;SDS011;26549;50.918;5.338;2023-07-13T11:43:14;2.05;;;0.50;;
40827;SDS011;26549;50.918;5.338;2023-07-13T11:45:41;3.95;;;1.55;;
40827;SDS011;26549;50.918;5.338;2023-07-13T11:48:18;6.68;;;1.05;;
40827;SDS011;26549;50.918;5.338;2023-07-13T11:50:55;4.63;;;0.90;;
40827;SDS011;26549;50.918;5.338;2023-07-13T11:53:31;3.72;;;0.90;;
40827;SDS011;26549;50.918;5.338;2023-07-13T11:56:10;3.72;;;1.30;;
40827;SDS011;26549;50.918;5.338;2023-07-13T11:58:37;3.17;;;0.93;;
40827;SDS011;26549;50.918;5.338;2023-07-13T12:01:04;5.10;;;1.13;;
40827;SDS011;26549;50.918;5.338;2023-07-13T12:03:30;2.13;;;1.33;;
40827;SDS011;26549;50.918;5.338;2023-07-13T12:06:03;4.22;;;0.80;;
40827;SDS011;26549;50.918;5.338;2023-07-13T12:08:31;2.75;;;0.95;;
40827;SDS011;26549;50.918;5.338;2023-07-13T12:11:09;3.67;;;0.80;;
40827;SDS011;26549;50.918;5.338;2023-07-13T12:13:43;2.38;;;1.02;;
40827;SDS011;26549;50.918;5.338;2023-07-13T12:16:31;4.18;;;0.70;;
40827;SDS011;26549;50.918;5.338;2023-07-13T12:18:58;3.42;;;0.77;;
40827;SDS011;26549;50.918;5.338;2023-07-13T12:21:28;5.63;;;1.15;;
40827;SDS011;26549;50.918;5.338;2023-07-13T12:23:57;3.90;;;2.03;;
40827;SDS011;26549;50.918;5.338;2023-07-13T12:26:23;3.20;;;0.88;;
40827;SDS011;26549;50.918;5.338;2023-07-13T12:28:51;3.40;;;0.77;;
40827;SDS011;26549;50.918;5.338;2023-07-13T12:34:08;3.30;;;1.00;;
40827;SDS011;26549;50.918;5.338;2023-07-13T12:37:01;2.25;;;0.80;;
40827;SDS011;26549;50.918;5.338;2023-07-13T12:39:28;2.05;;;0.98;;
40827;SDS011;26549;50.918;5.338;2023-07-13T12:45:19;3.17;;;0.93;;
40827;SDS011;26549;50.918;5.338;2023-07-13T12:47:47;2.83;;;0.95;;
40827;SDS011;26549;50.918;5.338;2023-07-13T12:50:15;3.63;;;0.75;;
40827;SDS011;26549;50.918;5.338;2023-07-13T12:52:43;1.73;;;0.88;;
40827;SDS011;26549;50.918;5.338;2023-07-13T12:55:17;3.85;;;1.10;;
40827;SDS011;26549;50.918;5.338;2023-07-13T12:57:51;2.97;;;0.73;;
40827;SDS011;26549;50.918;5.338;2023-07-13T13:00:28;2.25;;;0.70;;
40827;SDS011;26549;50.918;5.338;2023-07-13T13:02:57;2.78;;;1.10;;
40827;SDS011;26549;50.918;5.338;2023-07-13T13:05:29;3.60;;;1.20;;
40827;SDS011;26549;50.918;5.338;2023-07-13T13:07:55;3.83;;;0.73;;
40827;SDS011;26549;50.918;5.338;2023-07-13T13:10:22;3.80;;;1.25;;
40827;SDS011;26549;50.918;5.338;2023-07-13T13:12:48;1.38;;;0.60;;
40827;SDS011;26549;50.918;5.338;2023-07-13T13:15:15;3.97;;;0.70;;
40827;SDS011;26549;50.918;5.338;2023-07-13T13:17:41;3.33;;;0.68;;
40827;SDS011;26549;50.918;5.338;2023-07-13T13:20:18;5.22;;;1.77;;
40827;SDS011;26549;50.918;5.338;2023-07-13T13:22:45;1.48;;;0.60;;
40827;SDS011;26549;50.918;5.338;2023-07-13T13:25:11;2.03;;;0.98;;
40827;SDS011;26549;50.918;5.338;2023-07-13T13:27:39;1.98;;;0.77;;
40827;SDS011;26549;50.918;5.338;2023-07-13T13:30:11;2.40;;;0.80;;
40827;SDS011;26549;50.918;5.338;2023-07-13T13:32:40;2.95;;;1.00;;
40827;SDS011;26549;50.918;5.338;2023-07-13T13:35:13;7.22;;;1.67;;
40827;SDS011;26549;50.918;5.338;2023-07-13T13:37:40;2.05;;;0.70;;
40827;SDS011;26549;50.918;5.338;2023-07-13T13:40:17;2.13;;;1.15;;
40827;SDS011;26549;50.918;5.338;2023-07-13T13:42:44;1.42;;;0.80;;
40827;SDS011;26549;50.918;5.338;2023-07-13T13:45:10;1.40;;;0.75;;
40827;SDS011;26549;50.918;5.338;2023-07-13T13:47:43;1.27;;;0.88;;
40827;SDS011;26549;50.918;5.338;2023-07-13T13:50:14;3.95;;;1.45;;
40827;SDS011;26549;50.918;5.338;2023-07-13T13:52:45;2.45;;;1.00;;
40827;SDS011;26549;50.918;5.338;2023-07-13T13:55:12;1.75;;;0.88;;
40827;SDS011;26549;50.918;5.338;2023-07-13T13:57:45;2.58;;;0.90;;
40827;SDS011;26549;50.918;5.338;2023-07-13T14:00:12;2.03;;;0.77;;
40827;SDS011;26549;50.918;5.338;2023-07-13T14:02:47;6.20;;;2.17;;
40827;SDS011;26549;50.918;5.338;2023-07-13T14:05:17;1.95;;;0.88;;
40827;SDS011;26549;50.918;5.338;2023-07-13T14:07:46;2.58;;;0.85;;
40827;SDS011;26549;50.918;5.338;2023-07-13T14:10:15;4.57;;;1.52;;
40827;SDS011;26549;50.918;5.338;2023-07-13T14:12:53;2.42;;;0.77;;
40827;SDS011;26549;50.918;5.338;2023-07-13T14:15:24;2.38;;;0.70;;
40827;SDS011;26549;50.918;5.338;2023-07-13T14:17:53;5.03;;;1.25;;
40827;SDS011;26549;50.918;5.338;2023-07-13T14:20:20;3.05;;;0.77;;
40827;SDS011;26549;50.918;5.338;2023-07-13T14:22:48;1.73;;;0.90;;
40827;SDS011;26549;50.918;5.338;2023-07-13T14:25:15;2.35;;;0.98;;
40827;SDS011;26549;50.918;5.338;2023-07-13T14:27:43;2.60;;;0.93;;
40827;SDS011;26549;50.918;5.338;2023-07-13T14:32:39;5.88;;;1.13;;
40827;SDS011;26549;50.918;5.338;2023-07-13T14:35:05;4.50;;;1.40;;
40827;SDS011;26549;50.918;5.338;2023-07-13T14:37:31;3.58;;;0.80;;
40827;SDS011;26549;50.918;5.338;2023-07-13T14:39:57;1.27;;;0.85;;
40827;SDS011;26549;50.918;5.338;2023-07-13T14:42:23;2.20;;;1.02;;
40827;SDS011;26549;50.918;5.338;2023-07-13T14:44:48;7.45;;;1.30;;
40827;SDS011;26549;50.918;5.338;2023-07-13T14:47:14;1.40;;;0.80;;
40827;SDS011;26549;50.918;5.338;2023-07-13T14:49:41;6.47;;;1.63;;
40827;SDS011;26549;50.918;5.338;2023-07-13T14:52:12;2.58;;;0.80;;
40827;SDS011;26549;50.918;5.338;2023-07-13T14:54:43;1.67;;;0.88;;
40827;SDS011;26549;50.918;5.338;2023-07-13T14:57:16;2.65;;;1.08;;
40827;SDS011;26549;50.918;5.338;2023-07-13T14:59:44;4.38;;;1.05;;
40827;SDS011;26549;50.918;5.338;2023-07-13T15:02:13;3.45;;;0.90;;
40827;SDS011;26549;50.918;5.338;2023-07-13T15:04:52;3.50;;;1.00;;
40827;SDS011;26549;50.918;5.338;2023-07-13T15:07:19;1.67;;;0.88;;
40827;SDS011;26549;50.918;5.338;2023-07-13T15:09:46;3.30;;;1.00;;
40827;SDS011;26549;50.918;5.338;2023-07-13T15:12:12;1.63;;;0.68;;
40827;SDS011;26549;50.918;5.338;2023-07-13T15:14:38;3.90;;;0.90;;
40827;SDS011;26549;50.918;5.338;2023-07-13T15:17:04;2.70;;;0.70;;
40827;SDS011;26549;50.918;5.338;2023-07-13T15:19:31;1.92;;;0.75;;
40827;SDS011;26549;50.918;5.338;2023-07-13T15:21:57;2.95;;;0.60;;
40827;SDS011;26549;50.918;5.338;2023-07-13T15:24:24;3.15;;;0.70;;
40827;SDS011;26549;50.918;5.338;2023-07-13T15:26:50;3.55;;;1.05;;
40827;SDS011;26549;50.918;5.338;2023-07-13T15:29:18;1.45;;;0.73;;
40827;SDS011;26549;50.918;5.338;2023-07-13T15:31:44;2.13;;;1.02;;
40827;SDS011;26549;50.918;5.338;2023-07-13T15:34:11;2.28;;;0.65;;
40827;SDS011;26549;50.918;5.338;2023-07-13T15:36:39;1.67;;;0.70;;
40827;SDS011;26549;50.918;5.338;2023-07-13T15:39:05;2.70;;;0.70;;
40827;SDS011;26549;50.918;5.338;2023-07-13T15:41:31;1.15;;;0.55;;
40827;SDS011;26549;50.918;5.338;2023-07-13T15:44:00;2.65;;;0.98;;